Airfield :
LOGIN :

Register | Disclaimer

   EN    FR    IT 

 










Legend :    VFR   Marginal VFR   IFR   Intensive IFR   Very Intensive IFR
Visi :
Ceiling :
>= 8 km
>= 3000ft
5 to 8 km
1000 to 3000 ft
1500m to 5 km
500 to 1000 ft
800 to 1500m
200 to 500 ft
< 800m
< 200 ft
Symbols :   Thunderstorms  Fog  Heavy snow  Heavy precipitations  Wind > 20 kt
SIGMETs :     Misc.  Thunderstorms  Icing  Turbulence  Mountain Waves  Volcanic Ashes






- Airport Elevation : 146 ft
- IATA code : RKE


EKRK - Roskilde Tune

CURRENT METAR :
  • 011320Z AUTO 25013KT 9999 FEW048/// BKN068/// 21/09 Q1004

EXPIRED METARs :
  • 011250Z AUTO 26011KT 230V290 9999 FEW051/// FEW073/// 21/09 Q1004
  • 011220Z AUTO 25012KT 9999 FEW047/// SCT076/// 20/09 Q1004
  • 011150Z AUTO 24013KT 9999 FEW048/// BKN074/// 20/09 Q1004
  • 011120Z AUTO 26013KT 220V290 9999 FEW041/// FEW047/// SCT072/// 20/09 Q1004
  • 011050Z AUTO 25013KT 9999 SCT039/// SCT073/// 19/10 Q1004

TAF TAF EKRK
Valid from the 01 at 12:00 until the 01 at 21:00 UTC


011124Z 0112/0121 25012KT 9999 SCT030
TEMPO 0112/0118 SCT030TCU



MET'MAP, your aeronautical weather chart ! - Copyright ORBIFLY December 2007 - Disclaimer

ORBIFLY MET'MAP TEAM :

Programming & Development : Alexandra Zaïnal
Concept & original design : Baudouin d'Aumeries
Assistance for programming : Marc-Olivier Méhu
Technical & hardware support : Manuel Goepfert

Contact : metmap@orbifly.com




SOURCES & CREDITS :

   NOAA